createdAt,value
2023-10-26T00:01:45.379Z,90774.03
2023-10-26T00:04:12.115Z,90789.00
2023-10-26T00:06:38.855Z,90786.38
2023-10-26T00:09:05.833Z,90781.50
2023-10-26T00:11:32.589Z,90774.16
2023-10-26T00:13:59.266Z,90785.09
2023-10-26T00:16:25.911Z,90767.50
2023-10-26T00:18:52.799Z,90775.94
2023-10-26T00:21:20.278Z,90777.25
2023-10-26T00:23:47.129Z,90773.75
2023-10-26T00:26:13.879Z,90775.72
2023-10-26T00:28:41.094Z,90775.69
2023-10-26T00:31:07.855Z,90771.84
2023-10-26T00:33:34.593Z,90770.25
2023-10-26T00:36:01.305Z,90768.53
2023-10-26T00:38:27.961Z,90766.19
2023-10-26T00:40:54.664Z,90758.25
2023-10-26T00:43:22.872Z,90747.50
2023-10-26T00:45:53.727Z,90736.16
2023-10-26T00:48:21.382Z,90744.78
2023-10-26T00:50:49.869Z,90742.06
2023-10-26T00:53:19.136Z,90739.44
2023-10-26T00:55:48.590Z,90746.81
2023-10-26T00:58:17.397Z,90758.94
2023-10-26T01:00:44.934Z,90752.13
2023-10-26T01:03:12.752Z,90756.59
2023-10-26T01:05:39.447Z,90745.66
2023-10-26T01:08:06.398Z,90729.59
2023-10-26T01:10:35.870Z,90739.41
2023-10-26T01:13:02.676Z,90746.50
2023-10-26T01:15:31.603Z,90746.81
2023-10-26T01:17:59.548Z,90754.63
2023-10-26T01:20:26.398Z,90742.66
2023-10-26T01:22:53.098Z,90744.88
2023-10-26T01:25:19.908Z,90738.16
2023-10-26T01:27:46.598Z,90732.41
2023-10-26T01:30:14.194Z,90737.31
2023-10-26T01:32:41.073Z,90726.00
2023-10-26T01:35:08.101Z,90733.13
2023-10-26T01:37:34.778Z,90730.44
2023-10-26T01:40:01.757Z,90739.63
2023-10-26T01:42:28.602Z,90734.72
2023-10-26T01:44:56.616Z,90734.47
2023-10-26T01:47:23.465Z,90735.03
2023-10-26T01:49:50.176Z,90727.13
2023-10-26T01:52:16.897Z,90724.19
2023-10-26T01:54:43.973Z,90734.63
2023-10-26T01:57:11.022Z,90743.66
2023-10-26T01:59:37.879Z,90751.47
2023-10-26T02:02:04.889Z,90750.28
2023-10-26T02:04:31.514Z,90742.81
2023-10-26T02:06:58.258Z,90742.44
2023-10-26T02:09:25.065Z,90746.47
2023-10-26T02:11:51.845Z,90735.56
2023-10-26T02:14:19.184Z,90736.81
2023-10-26T02:16:46.262Z,90731.50
2023-10-26T02:19:15.319Z,90740.94
2023-10-26T02:21:43.502Z,90740.91
2023-10-26T02:24:10.313Z,90739.13
2023-10-26T02:26:37.012Z,90727.09
2023-10-26T02:29:03.802Z,90740.25
2023-10-26T02:31:30.608Z,90746.22
2023-10-26T02:33:57.422Z,90742.91
2023-10-26T02:36:24.282Z,90743.97
2023-10-26T02:38:51.031Z,90739.81
2023-10-26T02:41:17.765Z,90758.22
2023-10-26T02:43:44.421Z,90754.50
2023-10-26T02:46:11.100Z,90738.41
2023-10-26T02:48:38.605Z,90746.34
2023-10-26T02:51:05.773Z,90744.03
2023-10-26T02:53:33.377Z,90745.22
2023-10-26T02:56:00.210Z,90747.41
2023-10-26T02:58:26.908Z,90747.03
2023-10-26T03:00:56.627Z,90745.16
2023-10-26T03:03:24.127Z,90754.50
2023-10-26T03:05:51.095Z,90753.69
2023-10-26T03:08:18.260Z,90774.00
2023-10-26T03:10:45.230Z,90751.78
2023-10-26T03:13:12.854Z,90752.59
2023-10-26T03:15:39.574Z,90751.03
2023-10-26T03:18:08.020Z,90747.19
2023-10-26T03:20:34.832Z,90791.09
2023-10-26T03:23:01.554Z,90729.22
2023-10-26T03:25:28.562Z,90740.19
2023-10-26T03:27:55.732Z,90748.78
2023-10-26T03:30:22.563Z,90756.16
2023-10-26T03:32:49.357Z,90738.22
2023-10-26T03:35:16.111Z,90744.69
2023-10-26T03:37:42.903Z,90730.53
2023-10-26T03:40:11.692Z,90733.31
2023-10-26T03:42:38.388Z,90731.50
2023-10-26T03:45:05.468Z,90707.19
2023-10-26T03:47:32.292Z,90702.41
2023-10-26T03:49:59.063Z,90721.91
2023-10-26T03:52:25.819Z,90738.03
2023-10-26T03:54:52.718Z,90756.28
2023-10-26T03:57:19.577Z,90745.88
2023-10-26T03:59:46.352Z,90716.78
2023-10-26T04:02:13.136Z,90727.38
2023-10-26T04:04:41.595Z,90707.50
2023-10-26T04:07:09.246Z,90711.00
2023-10-26T04:09:36.157Z,90704.06
2023-10-26T04:12:02.912Z,90726.69
2023-10-26T04:14:29.687Z,90722.41
2023-10-26T04:17:02.207Z,90710.13
2023-10-26T04:19:28.947Z,90715.94
2023-10-26T04:21:55.641Z,90695.47
2023-10-26T04:24:22.451Z,90710.00
2023-10-26T04:26:49.208Z,90706.22
2023-10-26T04:29:16.030Z,90694.97
2023-10-26T04:31:42.855Z,90696.84
2023-10-26T04:34:09.598Z,90716.94
2023-10-26T04:36:36.268Z,90702.81
2023-10-26T04:39:03.045Z,90699.75
2023-10-26T04:41:29.738Z,90688.19
2023-10-26T04:43:56.454Z,90676.78
2023-10-26T04:46:23.138Z,90681.22
2023-10-26T04:48:49.937Z,90680.00
2023-10-26T04:51:16.663Z,90701.00
2023-10-26T04:53:43.367Z,90694.47
2023-10-26T04:56:12.455Z,90687.84
2023-10-26T04:58:39.491Z,90686.50
2023-10-26T05:01:06.846Z,90678.91
2023-10-26T05:03:33.687Z,90693.56
2023-10-26T05:06:00.611Z,90718.19
2023-10-26T05:08:27.568Z,90717.78
2023-10-26T05:10:54.302Z,90733.50
2023-10-26T05:13:21.028Z,90734.63
2023-10-26T05:15:47.726Z,90747.38
2023-10-26T05:18:14.542Z,90755.00
2023-10-26T05:20:41.265Z,90761.69
2023-10-26T05:23:09.525Z,90763.00
2023-10-26T05:25:37.508Z,90760.56
2023-10-26T05:28:04.823Z,90752.31
2023-10-26T05:30:31.642Z,90758.34
2023-10-26T05:32:58.467Z,90749.25
2023-10-26T05:35:25.341Z,90762.06
2023-10-26T05:37:53.515Z,90763.69
2023-10-26T05:40:20.349Z,90751.03
2023-10-26T05:42:47.025Z,90747.97
2023-10-26T05:45:13.828Z,90758.31
2023-10-26T05:47:41.104Z,90779.25
2023-10-26T05:50:09.053Z,90754.88
2023-10-26T05:52:35.742Z,90758.19
2023-10-26T05:55:03.957Z,90774.31
2023-10-26T05:57:30.702Z,90780.75
2023-10-26T05:59:57.509Z,90795.09
2023-10-26T06:02:25.250Z,90796.75
2023-10-26T06:04:52.165Z,90805.03
2023-10-26T06:07:18.886Z,90801.97
2023-10-26T06:09:45.501Z,90806.72
2023-10-26T06:12:12.441Z,90811.19
2023-10-26T06:14:39.252Z,90824.56
2023-10-26T06:17:05.975Z,90824.47
2023-10-26T06:19:33.185Z,90820.22
2023-10-26T06:21:59.874Z,90792.47
2023-10-26T06:24:26.614Z,90803.16
2023-10-26T06:26:53.360Z,90808.38
2023-10-26T06:29:20.539Z,90820.34
2023-10-26T06:31:47.221Z,90844.22
2023-10-26T06:34:14.314Z,90838.63
2023-10-26T06:36:41.086Z,90834.97
2023-10-26T06:39:07.872Z,90816.09
2023-10-26T06:41:34.677Z,90838.06
2023-10-26T06:44:01.436Z,90857.06
2023-10-26T06:46:28.175Z,90875.75
2023-10-26T06:48:55.722Z,90891.56
2023-10-26T06:51:23.698Z,90878.88
2023-10-26T06:53:50.930Z,90885.63
2023-10-26T06:56:17.665Z,90890.03
2023-10-26T06:58:44.754Z,90914.00
2023-10-26T07:01:20.691Z,90877.84
2023-10-26T07:03:49.737Z,90863.56
2023-10-26T07:06:16.788Z,90885.03
2023-10-26T07:08:43.456Z,90882.03
2023-10-26T07:11:10.179Z,90872.13
2023-10-26T07:13:36.879Z,90871.47
2023-10-26T07:16:04.588Z,90884.66
2023-10-26T07:18:31.447Z,90865.53
2023-10-26T07:20:58.408Z,90841.56
2023-10-26T07:23:25.197Z,90833.72
2023-10-26T07:25:51.987Z,90830.88
2023-10-26T07:28:18.720Z,90823.78
2023-10-26T07:30:45.923Z,90812.78
2023-10-26T07:33:12.687Z,90795.69
2023-10-26T07:35:42.275Z,90776.00
2023-10-26T07:38:36.990Z,90751.94
2023-10-26T07:41:01.536Z,90773.16
2023-10-26T07:43:29.133Z,90771.81
2023-10-26T07:45:56.805Z,90791.78
2023-10-26T07:48:23.590Z,90775.50
2023-10-26T07:50:52.137Z,90770.38
2023-10-26T07:53:18.865Z,90785.25
2023-10-26T07:55:45.988Z,90808.06
2023-10-26T07:58:12.676Z,90797.69
2023-10-26T08:00:39.392Z,90820.00
2023-10-26T08:03:06.266Z,90828.50
2023-10-26T08:05:33.006Z,90841.50
2023-10-26T08:07:59.760Z,90838.63
2023-10-26T08:10:27.391Z,90840.75
2023-10-26T08:12:54.669Z,90850.72
2023-10-26T08:16:28.970Z,90840.38
2023-10-26T08:18:08.780Z,90837.84
2023-10-26T08:20:35.646Z,90827.16
2023-10-26T08:23:05.611Z,90829.75
2023-10-26T08:25:38.633Z,90818.66
2023-10-26T08:28:05.393Z,90826.84
2023-10-26T08:30:32.025Z,90848.97
2023-10-26T08:33:01.102Z,90841.88
2023-10-26T08:35:27.996Z,90847.53
2023-10-26T08:37:55.188Z,90838.72
2023-10-26T08:40:22.337Z,90861.34
2023-10-26T08:42:49.076Z,90894.25
2023-10-26T08:45:23.886Z,90902.28
2023-10-26T08:47:51.658Z,90878.19
2023-10-26T08:50:23.775Z,90880.56
2023-10-26T08:52:52.592Z,90850.78
2023-10-26T08:55:19.452Z,90869.81
2023-10-26T08:57:52.068Z,90861.69
2023-10-26T09:00:19.697Z,90859.72
2023-10-26T09:02:49.391Z,90870.44
2023-10-26T09:05:16.640Z,90873.59
2023-10-26T09:07:43.429Z,90885.72
2023-10-26T09:10:10.727Z,90879.28
2023-10-26T09:12:37.863Z,90880.75
2023-10-26T09:15:11.662Z,90897.94
2023-10-26T09:17:38.698Z,90914.63
2023-10-26T09:20:26.116Z,90904.13
2023-10-26T09:22:53.216Z,90912.28
2023-10-26T09:25:20.295Z,90895.84
2023-10-26T09:27:47.461Z,90888.75
2023-10-26T09:30:30.842Z,90876.75
2023-10-26T09:32:58.533Z,90889.69
2023-10-26T09:35:34.953Z,90880.19
2023-10-26T09:38:01.988Z,90888.00
2023-10-26T09:40:29.387Z,90894.25
2023-10-26T09:42:59.513Z,90875.97
2023-10-26T09:45:26.943Z,90882.84
2023-10-26T09:47:54.058Z,90886.53
2023-10-26T09:50:22.163Z,90874.97
2023-10-26T09:52:49.920Z,90861.06
2023-10-26T09:55:17.424Z,90834.72
2023-10-26T09:57:54.572Z,90829.09
2023-10-26T10:00:30.648Z,90816.34
2023-10-26T10:03:14.508Z,90809.41
2023-10-26T10:05:48.128Z,90817.09
2023-10-26T10:08:15.473Z,90812.00
2023-10-26T10:11:18.517Z,90796.84
2023-10-26T10:13:45.609Z,90790.50
2023-10-26T10:16:38.014Z,90782.00
2023-10-26T10:19:24.613Z,90757.72
2023-10-26T10:21:53.303Z,90759.59
2023-10-26T10:24:46.374Z,90764.50
2023-10-26T10:27:16.724Z,90760.03
2023-10-26T10:29:43.988Z,90763.78
2023-10-26T10:32:12.275Z,90758.38
2023-10-26T10:34:46.989Z,90762.44
2023-10-26T10:37:23.123Z,90756.25
2023-10-26T10:40:15.873Z,90761.78
2023-10-26T10:42:52.892Z,90760.06
2023-10-26T10:45:20.264Z,90767.06
2023-10-26T10:47:50.438Z,90759.13
2023-10-26T10:50:25.154Z,90759.81
2023-10-26T10:52:56.455Z,90757.59
2023-10-26T10:55:29.926Z,90757.91
2023-10-26T10:57:56.727Z,90753.75
2023-10-26T11:00:25.812Z,90751.09
2023-10-26T11:03:00.649Z,90759.66
2023-10-26T11:05:41.249Z,90752.72
2023-10-26T11:08:08.889Z,90754.94
2023-10-26T11:10:36.255Z,90752.28
2023-10-26T11:13:03.726Z,90751.78
2023-10-26T11:15:38.342Z,90764.56
2023-10-26T11:18:08.020Z,90760.88
2023-10-26T11:20:43.737Z,90758.75
2023-10-26T11:23:12.171Z,90759.00
2023-10-26T11:25:39.633Z,90743.88
2023-10-26T11:28:07.654Z,90748.94
2023-10-26T11:30:51.975Z,90750.16
2023-10-26T11:33:39.756Z,90737.59
2023-10-26T11:36:10.921Z,90736.56
2023-10-26T11:38:49.294Z,90718.47
2023-10-26T11:41:26.902Z,90731.22
2023-10-26T11:43:53.720Z,90737.03
2023-10-26T11:46:34.591Z,90728.78
2023-10-26T11:49:08.896Z,90749.66
2023-10-26T11:51:38.654Z,90753.00
2023-10-26T11:54:13.676Z,90750.78
2023-10-26T11:56:40.470Z,90760.84
2023-10-26T11:59:07.231Z,90723.22
2023-10-26T12:01:34.076Z,90733.59
2023-10-26T12:04:00.837Z,90737.66
2023-10-26T12:06:31.118Z,90724.66
2023-10-26T12:08:57.905Z,90727.41
2023-10-26T12:11:24.820Z,90716.41
2023-10-26T12:13:51.559Z,90721.59
2023-10-26T12:16:18.363Z,90733.56
2023-10-26T12:18:45.162Z,90727.44
2023-10-26T12:21:11.964Z,90706.53
2023-10-26T12:23:39.005Z,90696.94
2023-10-26T12:26:05.659Z,90702.09
2023-10-26T12:28:32.374Z,90692.13
2023-10-26T12:30:59.352Z,90690.31
2023-10-26T12:33:26.187Z,90689.69
2023-10-26T12:35:52.868Z,90717.16
2023-10-26T12:38:23.409Z,90701.34
2023-10-26T12:40:50.417Z,90698.75
2023-10-26T12:43:17.641Z,90684.94
2023-10-26T12:45:44.485Z,90688.00
2023-10-26T12:48:14.040Z,90690.28
2023-10-26T12:50:40.737Z,90684.84
2023-10-26T12:53:07.514Z,90673.09
2023-10-26T12:55:35.671Z,90681.47
2023-10-26T12:58:02.535Z,90677.84
2023-10-26T13:00:29.383Z,90677.63
2023-10-26T13:02:57.733Z,90684.59
2023-10-26T13:05:24.480Z,90696.91
2023-10-26T13:07:52.073Z,90685.31
2023-10-26T13:10:18.805Z,90671.13
2023-10-26T13:12:48.300Z,90690.84
2023-10-26T13:15:21.413Z,90670.94
2023-10-26T13:17:48.527Z,90657.41
2023-10-26T13:20:15.283Z,90645.56
2023-10-26T13:22:41.980Z,90654.94
2023-10-26T13:25:09.039Z,90645.72
2023-10-26T13:27:35.839Z,90643.25
2023-10-26T13:30:02.915Z,90646.66
2023-10-26T13:32:29.620Z,90628.50
2023-10-26T13:34:56.331Z,90620.91
2023-10-26T13:37:23.053Z,90608.63
2023-10-26T13:39:49.812Z,90609.09
2023-10-26T13:42:16.541Z,90611.34
2023-10-26T13:44:45.002Z,90605.34
2023-10-26T13:47:12.214Z,90614.78
2023-10-26T13:49:39.218Z,90614.47
2023-10-26T13:52:06.282Z,90619.59
2023-10-26T13:54:33.063Z,90623.06
2023-10-26T13:56:59.904Z,90624.00
2023-10-26T13:59:26.607Z,90625.84
2023-10-26T14:01:53.333Z,90629.41
2023-10-26T14:04:20.089Z,90631.00
2023-10-26T14:06:46.907Z,90629.28
2023-10-26T14:09:14.656Z,90631.31
2023-10-26T14:11:41.369Z,90634.06
2023-10-26T14:14:08.169Z,90615.25
2023-10-26T14:16:34.881Z,90618.22
2023-10-26T14:19:04.836Z,90620.47
2023-10-26T14:21:31.619Z,90623.22
2023-10-26T14:23:58.348Z,90630.41
2023-10-26T14:26:25.091Z,90631.59
2023-10-26T14:28:51.828Z,90627.44
2023-10-26T14:31:18.572Z,90633.22
2023-10-26T14:33:45.322Z,90635.91
2023-10-26T14:36:12.060Z,90631.72
2023-10-26T14:38:38.715Z,90642.75
2023-10-26T14:41:05.419Z,90646.34
2023-10-26T14:43:32.131Z,90648.16
2023-10-26T14:45:58.828Z,90655.97
2023-10-26T14:48:25.689Z,90651.63
2023-10-26T14:50:59.928Z,90649.06
2023-10-26T14:53:26.887Z,90646.66
2023-10-26T14:55:53.884Z,90658.72
2023-10-26T14:58:21.979Z,90655.03
2023-10-26T15:00:51.213Z,90669.31
2023-10-26T15:03:18.031Z,90669.66
2023-10-26T15:05:44.799Z,90666.44
2023-10-26T15:08:11.901Z,90671.16
2023-10-26T15:10:38.750Z,90667.44
2023-10-26T15:13:06.091Z,90673.28
2023-10-26T15:15:32.914Z,90666.69
2023-10-26T15:18:00.000Z,90682.06
2023-10-26T15:20:26.925Z,90681.72
2023-10-26T15:22:59.227Z,90682.38
2023-10-26T15:25:25.909Z,90694.84
2023-10-26T15:27:53.696Z,90690.81
2023-10-26T15:30:20.677Z,90679.16
2023-10-26T15:32:47.452Z,90686.16
2023-10-26T15:35:14.358Z,90693.16
2023-10-26T15:37:41.071Z,90690.09
2023-10-26T15:40:11.343Z,90686.47
2023-10-26T15:42:38.085Z,90687.22
2023-10-26T15:45:05.685Z,90691.44
2023-10-26T15:47:32.388Z,90691.16
2023-10-26T15:50:00.416Z,90711.97
2023-10-26T15:52:27.130Z,90700.03
2023-10-26T15:54:54.290Z,90710.75
2023-10-26T15:57:21.123Z,90705.47
2023-10-26T15:59:47.985Z,90699.84
2023-10-26T16:02:14.773Z,90721.97
2023-10-26T16:04:41.678Z,90714.31
2023-10-26T16:07:08.346Z,90708.53
2023-10-26T16:09:37.379Z,90716.47
2023-10-26T16:12:05.015Z,90722.50
2023-10-26T16:14:31.796Z,90721.81
2023-10-26T16:16:58.521Z,90705.25
2023-10-26T16:19:26.889Z,90718.19
2023-10-26T16:21:53.759Z,90701.66
2023-10-26T16:24:21.038Z,90719.47
2023-10-26T16:26:48.046Z,90709.59
2023-10-26T16:29:14.822Z,90703.69
2023-10-26T16:31:41.516Z,90722.75
2023-10-26T16:34:08.368Z,90722.66
2023-10-26T16:36:35.148Z,90733.44
2023-10-26T16:39:01.861Z,90732.31
2023-10-26T16:41:28.629Z,90742.25
2023-10-26T16:43:55.285Z,90735.56
2023-10-26T16:46:22.133Z,90735.63
2023-10-26T16:48:48.973Z,90733.41
2023-10-26T16:51:16.351Z,90730.81
2023-10-26T16:53:43.944Z,90736.34
2023-10-26T16:56:10.921Z,90729.66
2023-10-26T16:58:37.795Z,90734.06
2023-10-26T17:01:06.788Z,90731.31
2023-10-26T17:03:33.717Z,90729.72
2023-10-26T17:06:00.431Z,90734.31
2023-10-26T17:08:27.096Z,90733.91
2023-10-26T17:10:53.954Z,90735.13
2023-10-26T17:13:22.298Z,90729.03
2023-10-26T17:15:52.614Z,90729.16
2023-10-26T17:18:21.313Z,90735.13
2023-10-26T17:20:48.366Z,90733.94
2023-10-26T17:23:15.553Z,90726.63
2023-10-26T17:25:42.632Z,90733.13
2023-10-26T17:28:09.804Z,90733.06
2023-10-26T17:30:38.050Z,90731.03
2023-10-26T17:33:05.425Z,90728.66
2023-10-26T17:35:38.858Z,90722.75
2023-10-26T17:38:06.010Z,90716.00
2023-10-26T17:40:32.781Z,90717.50
2023-10-26T17:42:59.521Z,90722.59
2023-10-26T17:45:26.767Z,90722.25
2023-10-26T17:47:53.475Z,90724.09
2023-10-26T17:50:20.145Z,90723.06
2023-10-26T17:52:46.835Z,90717.50
2023-10-26T17:55:14.778Z,90728.25
2023-10-26T17:57:41.595Z,90729.56
2023-10-26T18:00:09.623Z,90741.28
2023-10-26T18:02:38.119Z,90748.78
2023-10-26T18:05:05.249Z,90765.38
2023-10-26T18:07:32.019Z,90767.06
2023-10-26T18:09:58.686Z,90770.75
2023-10-26T18:12:27.526Z,90776.19
2023-10-26T18:14:54.250Z,90772.34
2023-10-26T18:17:21.698Z,90780.00
2023-10-26T18:19:48.464Z,90783.69
2023-10-26T18:22:15.268Z,90787.16
2023-10-26T18:24:42.214Z,90781.19
2023-10-26T18:27:08.980Z,90780.50
2023-10-26T18:29:35.741Z,90770.44
2023-10-26T18:32:02.398Z,90780.22
2023-10-26T18:34:29.056Z,90781.00
2023-10-26T18:36:55.808Z,90784.75
2023-10-26T18:39:22.639Z,90781.84
2023-10-26T18:41:49.370Z,90781.63
2023-10-26T18:44:16.222Z,90778.13
2023-10-26T18:46:42.908Z,90774.63
2023-10-26T18:49:10.021Z,90774.63
2023-10-26T18:51:36.962Z,90769.13
2023-10-26T18:54:04.603Z,90780.31
2023-10-26T18:56:31.900Z,90787.66
2023-10-26T18:59:00.226Z,90780.47
2023-10-26T19:01:27.899Z,90789.72
2023-10-26T19:04:02.669Z,90788.53
2023-10-26T19:06:31.013Z,90786.16
2023-10-26T19:08:58.140Z,90805.78
2023-10-26T19:11:24.837Z,90795.31
2023-10-26T19:13:51.911Z,90794.47
2023-10-26T19:16:18.927Z,90800.69
2023-10-26T19:18:45.842Z,90796.84
2023-10-26T19:21:12.569Z,90786.56
2023-10-26T19:23:39.262Z,90781.19
2023-10-26T19:26:05.978Z,90786.41
2023-10-26T19:28:35.204Z,90779.72
2023-10-26T19:31:02.098Z,90786.13
2023-10-26T19:33:28.779Z,90787.25
2023-10-26T19:35:55.508Z,90795.97
2023-10-26T19:38:22.178Z,90795.16
2023-10-26T19:40:48.973Z,90805.31
2023-10-26T19:43:15.686Z,90814.94
2023-10-26T19:45:43.537Z,90816.44
2023-10-26T19:48:10.492Z,90809.28
2023-10-26T19:50:37.492Z,90799.72
2023-10-26T19:53:04.887Z,90798.38
2023-10-26T19:55:31.898Z,90795.69
2023-10-26T19:57:58.701Z,90802.47
2023-10-26T20:00:25.893Z,90796.41
2023-10-26T20:02:52.594Z,90785.91
2023-10-26T20:05:19.926Z,90794.28
2023-10-26T20:07:46.597Z,90799.50
2023-10-26T20:10:13.332Z,90804.81
2023-10-26T20:12:40.175Z,90797.34
2023-10-26T20:15:09.479Z,90811.16
2023-10-26T20:17:36.308Z,90807.63
2023-10-26T20:20:07.896Z,90812.13
2023-10-26T20:22:35.023Z,90816.69
2023-10-26T20:25:01.939Z,90805.91
2023-10-26T20:27:28.730Z,90802.09
2023-10-26T20:29:55.480Z,90805.22
2023-10-26T20:32:22.739Z,90804.81
2023-10-26T20:34:49.594Z,90808.44
2023-10-26T20:37:16.436Z,90797.19
2023-10-26T20:39:44.740Z,90799.50
2023-10-26T20:42:11.668Z,90788.47
2023-10-26T20:44:38.586Z,90788.41
2023-10-26T20:47:06.290Z,90790.16
2023-10-26T20:49:32.970Z,90805.50
2023-10-26T20:51:59.764Z,90797.44
2023-10-26T20:54:26.414Z,90799.72
2023-10-26T20:56:53.112Z,90803.16
2023-10-26T20:59:19.930Z,90804.69
2023-10-26T21:01:46.695Z,90799.22
2023-10-26T21:04:13.513Z,90800.34
2023-10-26T21:06:40.241Z,90797.19
2023-10-26T21:09:06.918Z,90799.31
2023-10-26T21:11:33.658Z,90802.09
2023-10-26T21:14:00.989Z,90792.00
2023-10-26T21:16:27.902Z,90796.00
2023-10-26T21:18:54.772Z,90798.50
2023-10-26T21:21:21.470Z,90791.72
2023-10-26T21:23:48.204Z,90802.97
2023-10-26T21:26:15.018Z,90790.38
2023-10-26T21:28:42.887Z,90794.03
2023-10-26T21:31:09.927Z,90792.53
2023-10-26T21:33:37.812Z,90786.50
2023-10-26T21:36:06.080Z,90782.50
2023-10-26T21:38:32.791Z,90775.66
2023-10-26T21:41:05.118Z,90767.75
2023-10-26T21:43:33.362Z,90779.06
2023-10-26T21:46:06.813Z,90778.72
2023-10-26T21:48:34.258Z,90778.84
2023-10-26T21:51:12.279Z,90770.75
2023-10-26T21:53:39.647Z,90762.47
2023-10-26T21:56:06.791Z,90754.22
2023-10-26T21:58:33.897Z,90741.31
2023-10-26T22:01:00.716Z,90752.59
2023-10-26T22:03:27.439Z,90751.50
2023-10-26T22:05:54.103Z,90751.34
2023-10-26T22:08:20.794Z,90755.19
2023-10-26T22:10:47.484Z,90758.25
2023-10-26T22:13:14.541Z,90760.56
2023-10-26T22:15:41.287Z,90753.09
2023-10-26T22:18:08.779Z,90762.94
2023-10-26T22:20:37.400Z,90766.31
2023-10-26T22:23:05.141Z,90755.91
2023-10-26T22:25:32.316Z,90752.47
2023-10-26T22:27:59.142Z,90752.81
2023-10-26T22:30:26.022Z,90747.53
2023-10-26T22:32:52.809Z,90747.53
2023-10-26T22:35:20.123Z,90743.84
2023-10-26T22:37:46.750Z,90741.63
2023-10-26T22:40:13.751Z,90740.41
2023-10-26T22:42:40.478Z,90735.53
2023-10-26T22:45:07.792Z,90744.78
2023-10-26T22:47:35.073Z,90737.25
2023-10-26T22:50:02.095Z,90744.00
2023-10-26T22:52:28.847Z,90737.25
2023-10-26T22:54:55.671Z,90732.31
2023-10-26T22:57:22.471Z,90739.44
2023-10-26T22:59:55.994Z,90743.91
2023-10-26T23:02:23.284Z,90742.41
2023-10-26T23:04:52.061Z,90742.50
2023-10-26T23:07:18.801Z,90742.88
2023-10-26T23:09:46.196Z,90733.59
2023-10-26T23:12:13.760Z,90735.81
2023-10-26T23:14:40.422Z,90725.28
2023-10-26T23:17:07.059Z,90732.81
2023-10-26T23:19:33.766Z,90757.31
2023-10-26T23:22:00.940Z,90762.56
2023-10-26T23:24:31.913Z,90758.09
2023-10-26T23:26:58.651Z,90755.47
2023-10-26T23:29:26.892Z,90769.31
2023-10-26T23:31:53.572Z,90760.78
2023-10-26T23:34:20.313Z,90755.94
2023-10-26T23:36:47.075Z,90751.78
2023-10-26T23:39:13.870Z,90745.78
2023-10-26T23:41:40.893Z,90751.38
2023-10-26T23:44:08.198Z,90740.50
2023-10-26T23:46:35.371Z,90740.28
2023-10-26T23:49:02.123Z,90734.59
2023-10-26T23:51:28.807Z,90736.88
2023-10-26T23:53:55.537Z,90728.25
2023-10-26T23:56:22.293Z,90728.97
2023-10-26T23:58:48.954Z,90709.91
